Time;durP1;ratioP1;P1;durP2;ratioP2;P2;SDS_P1;SDS_P2;PMS_P1;PMS_P2;Temp;Humidity;BMP_temperature;BMP_pressure;BME280_temperature;BME280_humidity;BME280_pressure;Samples;Min_cycle;Max_cycle;Signal;HPM_P1;HPM_P2
2022/09/07 00:00:40;;;;;;;2.05;1.50;;;18.10;99.90;;;;;;5051299;28;20018;-81
2022/09/07 00:03:06;;;;;;;;;;;18.10;99.90;;;;;;5051613;28;20057;-81
2022/09/07 00:05:31;;;;;;;1.20;1.10;;;18.00;99.90;;;;;;5051044;28;19955;-81
2022/09/07 00:07:58;;;;;;;;;;;18.00;99.90;;;;;;5051547;28;20099;-81
2022/09/07 00:10:24;;;;;;;1.52;1.20;;;17.90;99.90;;;;;;5034671;28;19986;-71
2022/09/07 00:12:51;;;;;;;1.67;1.20;;;18.00;99.90;;;;;;5050902;28;20476;-72
2022/09/07 00:15:17;;;;;;;1.70;1.60;;;17.90;99.90;;;;;;5051109;28;20036;-71
2022/09/07 00:17:43;;;;;;;1.48;1.38;;;18.00;99.90;;;;;;5034276;28;20076;-81
2022/09/07 00:20:09;;;;;;;;;;;17.90;99.90;;;;;;5051835;28;20072;-81
2022/09/07 00:22:35;;;;;;;2.03;1.75;;;17.90;99.90;;;;;;5051184;28;19947;-81
2022/09/07 00:25:01;;;;;;;;;;;17.80;99.90;;;;;;5051297;28;20045;-81
2022/09/07 00:27:27;;;;;;;1.35;1.20;;;17.70;99.90;;;;;;5050903;28;19967;-81
2022/09/07 00:29:52;;;;;;;1.30;1.20;;;17.70;99.90;;;;;;5034508;28;20376;-81
2022/09/07 00:32:18;;;;;;;;;;;17.70;99.90;;;;;;5034535;28;20102;-81
2022/09/07 00:34:43;;;;;;;2.22;1.90;;;17.60;99.90;;;;;;5050663;28;19924;-81
2022/09/07 00:37:09;;;;;;;1.73;1.30;;;17.60;99.90;;;;;;5034760;28;20210;-81
2022/09/07 00:39:36;;;;;;;1.40;1.10;;;17.50;99.90;;;;;;5053582;28;20416;-81
2022/09/07 00:42:02;;;;;;;2.10;1.83;;;17.50;99.90;;;;;;5053691;28;20049;-81
2022/09/07 00:44:46;;;;;;;2.60;1.85;;;17.50;99.90;;;;;;5053716;28;20087;-81
2022/09/07 00:47:19;;;;;;;2.75;1.92;;;17.40;99.90;;;;;;5053512;28;20044;-81
2022/09/07 00:49:48;;;;;;;3.50;2.28;;;17.50;99.90;;;;;;5053717;28;20047;-81
2022/09/07 00:52:16;;;;;;;3.30;2.00;;;17.40;99.90;;;;;;5053565;28;20044;-81
2022/09/07 00:54:49;;;;;;;1.38;1.27;;;17.30;99.90;;;;;;5036744;28;20051;-81
2022/09/07 00:57:15;;;;;;;1.77;1.30;;;17.30;99.90;;;;;;5053475;28;20071;-82
2022/09/07 00:59:46;;;;;;;1.40;1.10;;;17.30;99.90;;;;;;5053671;28;20072;-81
2022/09/07 01:02:15;;;;;;;1.80;1.25;;;17.30;99.90;;;;;;5053595;28;20140;-82
2022/09/07 01:04:47;;;;;;;1.58;1.48;;;17.30;99.90;;;;;;5037051;28;20056;-81
2022/09/07 01:07:12;;;;;;;1.63;1.40;;;17.30;99.90;;;;;;5053232;28;20045;-80
2022/09/07 01:09:39;;;;;;;2.03;1.40;;;17.30;99.90;;;;;;5071613;28;20048;-81
2022/09/07 01:12:05;;;;;;;1.45;1.08;;;17.30;99.90;;;;;;5053336;28;20093;-81
2022/09/07 01:14:35;;;;;;;;;;;17.30;99.90;;;;;;5053930;28;20056;-81
2022/09/07 01:17:34;;;;;;;1.00;0.90;;;17.30;99.90;;;;;;5053689;28;20380;-79
2022/09/07 01:20:21;;;;;;;1.13;0.90;;;17.30;99.90;;;;;;5053825;28;20052;-80
2022/09/07 01:23:13;;;;;;;0.95;0.90;;;17.20;99.90;;;;;;5053237;28;20561;-80
2022/09/07 01:25:58;;;;;;;0.93;0.90;;;17.20;99.90;;;;;;5053389;28;20048;-81
2022/09/07 01:28:32;;;;;;;1.48;1.38;;;17.20;99.90;;;;;;5003318;28;20082;-80
2022/09/07 01:31:27;;;;;;;2.95;2.40;;;17.30;99.90;;;;;;5053147;28;20040;-80
2022/09/07 01:34:10;;;;;;;2.75;2.42;;;17.30;99.90;;;;;;5015690;28;20064;-81
2022/09/07 01:36:50;;;;;;;5.35;3.20;;;17.20;99.90;;;;;;5053153;28;20454;-78
2022/09/07 01:39:18;;;;;;;5.15;3.53;;;17.20;99.90;;;;;;5053224;28;20064;-81
2022/09/07 01:42:05;;;;;;;5.43;4.30;;;17.00;99.90;;;;;;5036820;28;20137;-78
2022/09/07 01:44:33;;;;;;;;;;;16.60;99.90;;;;;;5053580;28;20040;-78
2022/09/07 01:47:12;;;;;;;8.57;5.70;;;16.80;99.90;;;;;;5054009;28;20010;-79
2022/09/07 01:49:52;;;;;;;5.65;4.55;;;17.20;99.90;;;;;;5077463;28;20040;-80
2022/09/07 01:52:41;;;;;;;3.42;2.70;;;17.30;99.90;;;;;;5059513;28;20387;-79
2022/09/07 01:55:25;;;;;;;2.63;2.33;;;17.20;99.90;;;;;;5059281;28;20127;-78
2022/09/07 01:58:02;;;;;;;2.10;1.85;;;16.80;99.90;;;;;;5059531;28;20487;-79
2022/09/07 02:00:28;;;;;;;3.45;2.50;;;17.10;99.90;;;;;;5059391;28;20040;-80
2022/09/07 02:03:07;;;;;;;2.72;2.28;;;16.50;99.90;;;;;;5042549;28;20052;-80
2022/09/07 02:05:53;;;;;;;2.63;2.00;;;15.60;99.90;;;;;;5042985;28;20375;-81
2022/09/07 02:08:31;;;;;;;3.75;2.40;;;15.80;99.90;;;;;;5059348;28;20472;-81
2022/09/07 02:11:05;;;;;;;2.47;1.65;;;16.10;99.90;;;;;;5059336;28;20036;-81
2022/09/07 02:13:39;;;;;;;2.22;1.40;;;15.60;99.90;;;;;;5042762;28;20097;-81
2022/09/07 02:16:19;;;;;;;1.65;1.27;;;16.80;99.90;;;;;;5059529;28;20383;-81
2022/09/07 02:18:48;;;;;;;2.42;1.83;;;16.90;99.90;;;;;;5059285;28;20048;-81
2022/09/07 02:21:32;;;;;;;2.95;2.20;;;17.60;99.90;;;;;;5042490;28;20488;-82
2022/09/07 02:24:21;;;;;;;1.80;1.65;;;15.80;99.90;;;;;;5059766;28;20395;-82
2022/09/07 02:26:48;;;;;;;2.20;1.30;;;15.40;99.90;;;;;;5041790;28;20557;-82
2022/09/07 02:29:14;;;;;;;1.27;1.00;;;17.70;99.90;;;;;;5059356;28;20070;-82
2022/09/07 02:31:40;;;;;;;0.60;0.60;;;17.50;99.90;;;;;;5059442;28;20070;-82
2022/09/07 02:34:06;;;;;;;;;;;15.00;99.90;;;;;;5059651;28;20048;-81
2022/09/07 02:36:38;;;;;;;1.20;1.00;;;17.70;99.90;;;;;;5058953;28;19991;-81
2022/09/07 02:39:04;;;;;;;1.25;0.98;;;16.50;99.90;;;;;;5059021;28;20060;-82
2022/09/07 02:41:38;;;;;;;2.58;1.20;;;17.80;99.90;;;;;;5059369;28;20056;-82
2022/09/07 02:44:26;;;;;;;1.05;0.93;;;17.70;99.90;;;;;;5059096;28;20055;-82
2022/09/07 02:47:17;;;;;;;1.98;1.27;;;14.80;99.90;;;;;;5059028;28;20090;-82
2022/09/07 02:50:07;;;;;;;1.48;1.20;;;14.80;99.90;;;;;;5042631;28;20369;-81
2022/09/07 02:52:46;;;;;;;0.95;0.85;;;14.70;99.90;;;;;;5042640;28;20408;-81
2022/09/07 02:55:17;;;;;;;1.23;1.10;;;17.80;99.90;;;;;;5059025;28;20047;-82
2022/09/07 02:57:56;;;;;;;1.60;1.27;;;15.10;99.90;;;;;;5058924;28;20048;-82
2022/09/07 03:00:24;;;;;;;1.70;1.23;;;15.50;99.90;;;;;;5054729;28;20052;-81
2022/09/07 03:03:07;;;;;;;1.60;1.17;;;14.90;99.90;;;;;;5055775;28;20044;-81
2022/09/07 03:05:44;;;;;;;1.30;0.98;;;14.90;99.90;;;;;;5038973;28;20048;-81
2022/09/07 03:08:23;;;;;;;0.70;0.70;;;14.60;99.90;;;;;;5055792;28;20506;-81
2022/09/07 03:10:52;;;;;;;0.82;0.63;;;17.80;99.90;;;;;;5055555;28;20065;-82
2022/09/07 03:13:26;;;;;;;0.60;0.60;;;17.30;99.90;;;;;;5055497;28;20064;-81
2022/09/07 03:15:52;;;;;;;0.68;0.50;;;15.20;99.90;;;;;;5038804;28;20422;-81
2022/09/07 03:18:18;;;;;;;0.30;0.30;;;14.70;99.90;;;;;;5055426;28;20514;-81
2022/09/07 03:20:44;;;;;;;0.40;0.30;;;15.70;99.90;;;;;;5039021;28;20045;-80
2022/09/07 03:23:10;;;;;;;0.30;0.30;;;17.30;99.90;;;;;;5055360;28;20028;-81
2022/09/07 03:25:36;;;;;;;0.70;0.70;;;17.90;99.90;;;;;;5055560;28;20504;-82
2022/09/07 03:28:02;;;;;;;0.85;0.60;;;17.30;99.90;;;;;;5055159;28;20404;-80
2022/09/07 03:30:28;;;;;;;;;;;17.70;99.90;;;;;;5055881;28;20036;-81
2022/09/07 03:32:53;;;;;;;1.85;1.23;;;17.50;99.90;;;;;;5055183;28;19970;-81
2022/09/07 03:35:19;;;;;;;1.80;1.65;;;17.80;99.90;;;;;;5038858;28;20044;-81
2022/09/07 03:37:45;;;;;;;1.48;1.17;;;17.80;99.90;;;;;;5054833;28;20095;-81
2022/09/07 03:40:12;;;;;;;1.25;1.15;;;15.50;99.90;;;;;;5055113;28;20090;-80
2022/09/07 03:42:38;;;;;;;1.13;1.02;;;14.90;99.90;;;;;;5054935;28;20048;-81
2022/09/07 03:45:05;;;;;;;1.00;0.80;;;17.90;99.90;;;;;;5054809;28;20064;-81
2022/09/07 03:47:36;;;;;;;0.85;0.80;;;17.50;99.90;;;;;;5038439;28;20476;-81
2022/09/07 03:50:03;;;;;;;0.85;0.80;;;15.40;99.90;;;;;;5054908;28;20049;-80
2022/09/07 03:52:29;;;;;;;0.93;0.68;;;16.10;99.90;;;;;;5054886;28;20485;-81
2022/09/07 03:54:54;;;;;;;0.40;0.40;;;14.90;99.90;;;;;;5055103;28;20074;-81
2022/09/07 03:57:21;;;;;;;0.50;0.50;;;17.80;99.90;;;;;;5055016;28;20054;-81
2022/09/07 03:59:46;;;;;;;;;;;17.70;99.90;;;;;;5055064;28;20447;-81
2022/09/07 04:02:12;;;;;;;1.00;0.60;;;14.90;99.90;;;;;;5038027;28;19920;-81
2022/09/07 04:04:38;;;;;;;;;;;15.00;99.90;;;;;;5055113;28;20052;-81
2022/09/07 04:07:05;;;;;;;0.50;0.50;;;17.50;99.90;;;;;;5037863;28;20447;-81
2022/09/07 04:09:31;;;;;;;0.65;0.60;;;15.40;99.90;;;;;;5038044;28;20102;-81
2022/09/07 04:11:56;;;;;;;0.57;0.55;;;15.90;99.90;;;;;;5054129;28;20036;-81
2022/09/07 04:14:22;;;;;;;0.60;0.60;;;17.40;99.90;;;;;;5054678;28;20047;-81
2022/09/07 04:16:49;;;;;;;0.65;0.60;;;17.60;99.90;;;;;;5054549;28;20491;-81
2022/09/07 04:19:15;;;;;;;0.73;0.70;;;15.40;99.90;;;;;;5054609;28;20182;-81
2022/09/07 04:21:43;;;;;;;0.70;0.68;;;17.50;99.90;;;;;;5054565;28;20041;-81
2022/09/07 04:24:09;;;;;;;0.75;0.75;;;17.30;99.90;;;;;;5054246;28;20049;-81
2022/09/07 04:26:35;;;;;;;0.63;0.63;;;16.60;99.90;;;;;;5054534;28;20071;-81
2022/09/07 04:29:02;;;;;;;0.93;0.50;;;17.00;99.90;;;;;;5038304;28;20048;-81
2022/09/07 04:31:29;;;;;;;0.52;0.40;;;15.20;99.90;;;;;;5054529;28;20033;-81
2022/09/07 04:33:55;;;;;;;0.55;0.50;;;14.70;99.90;;;;;;5053959;28;20484;-81
2022/09/07 04:36:23;;;;;;;0.35;0.35;;;15.20;99.90;;;;;;5054115;28;20048;-81
2022/09/07 04:39:00;;;;;;;0.45;0.40;;;15.20;99.90;;;;;;5053786;28;20105;-81
2022/09/07 04:41:27;;;;;;;1.20;1.10;;;17.30;99.90;;;;;;5053735;28;20123;-81
2022/09/07 04:43:58;;;;;;;0.60;0.60;;;16.30;99.90;;;;;;5037194;28;20044;-81
2022/09/07 04:46:26;;;;;;;0.50;0.50;;;14.60;99.90;;;;;;5053463;28;20048;-81
2022/09/07 04:49:10;;;;;;;0.50;0.50;;;17.30;99.90;;;;;;5037275;28;20045;-81
2022/09/07 04:51:37;;;;;;;0.40;0.40;;;17.30;99.90;;;;;;5036831;28;20044;-81
2022/09/07 04:54:03;;;;;;;0.57;0.50;;;16.90;99.90;;;;;;5036952;28;20539;-81
2022/09/07 04:56:30;;;;;;;0.47;0.40;;;17.30;99.90;;;;;;5053572;28;20106;-82
2022/09/07 04:58:56;;;;;;;0.55;0.50;;;14.60;99.90;;;;;;5054177;28;20400;-80
2022/09/07 05:01:24;;;;;;;0.50;0.50;;;14.90;99.90;;;;;;5053469;28;20575;-80
2022/09/07 05:03:50;;;;;;;0.40;0.40;;;15.10;99.90;;;;;;5053330;28;20049;-80
2022/09/07 05:06:17;;;;;;;0.50;0.50;;;17.00;99.90;;;;;;5053310;28;20090;-81
2022/09/07 05:08:45;;;;;;;0.77;0.77;;;17.30;99.90;;;;;;5053378;28;20051;-81
2022/09/07 05:11:12;;;;;;;0.50;0.50;;;15.20;99.90;;;;;;5053791;28;20126;-80
2022/09/07 05:13:39;;;;;;;1.58;0.50;;;14.90;99.90;;;;;;5053344;28;20084;-81
2022/09/07 05:16:09;;;;;;;;;;;15.50;99.90;;;;;;5053431;28;20048;-80
2022/09/07 05:18:35;;;;;;;1.02;0.93;;;14.60;99.90;;;;;;5053456;28;20295;-81
2022/09/07 05:21:16;;;;;;;0.68;0.68;;;16.20;99.90;;;;;;5053389;28;20044;-80
2022/09/07 05:23:42;;;;;;;0.77;0.77;;;16.50;99.90;;;;;;5052466;28;20060;-80
2022/09/07 05:26:10;;;;;;;0.60;0.60;;;17.00;99.90;;;;;;5053304;28;20067;-81
2022/09/07 05:28:37;;;;;;;1.15;1.05;;;15.30;99.90;;;;;;5052770;28;20579;-80
2022/09/07 05:31:15;;;;;;;1.90;1.50;;;15.40;99.90;;;;;;5052959;28;20045;-80
2022/09/07 05:33:56;;;;;;;1.25;1.05;;;14.90;99.90;;;;;;5052909;28;20495;-80
2022/09/07 05:36:25;;;;;;;2.40;1.80;;;17.10;99.90;;;;;;5037073;28;20685;-81
2022/09/07 05:38:52;;;;;;;2.30;2.10;;;14.90;99.90;;;;;;5052777;28;20125;-80
2022/09/07 05:41:23;;;;;;;2.58;1.90;;;17.20;99.90;;;;;;5053211;28;20052;-81
2022/09/07 05:43:50;;;;;;;2.38;2.10;;;14.80;99.90;;;;;;5052982;28;20381;-80
2022/09/07 05:46:16;;;;;;;2.20;1.83;;;17.50;99.90;;;;;;5036131;28;20056;-82
2022/09/07 05:48:42;;;;;;;2.95;2.65;;;15.30;99.90;;;;;;5052730;28;20048;-79
2022/09/07 05:51:09;;;;;;;3.35;2.17;;;16.90;99.90;;;;;;5036045;28;20048;-81
2022/09/07 05:53:36;;;;;;;1.80;1.70;;;14.80;99.90;;;;;;5052962;28;20400;-80
2022/09/07 05:56:03;;;;;;;2.70;1.90;;;17.20;99.90;;;;;;5036041;28;20045;-80
2022/09/07 05:58:30;;;;;;;2.17;1.98;;;17.30;99.90;;;;;;5052855;28;20052;-81
2022/09/07 06:01:17;;;;;;;2.20;1.80;;;15.50;99.90;;;;;;5052971;28;20492;-81
2022/09/07 06:03:43;;;;;;;1.92;1.80;;;14.80;99.90;;;;;;5052861;28;20507;-80
2022/09/07 06:06:15;;;;;;;2.00;1.80;;;17.00;99.90;;;;;;5036239;28;20044;-80
2022/09/07 06:08:47;;;;;;;2.10;1.70;;;14.80;99.90;;;;;;5052680;28;20033;-80
2022/09/07 06:11:24;;;;;;;2.65;2.33;;;15.70;99.90;;;;;;5052871;28;20040;-81
2022/09/07 06:13:50;;;;;;;;;;;16.60;99.90;;;;;;5052978;28;20084;-80
2022/09/07 06:16:17;;;;;;;2.65;2.40;;;15.20;99.90;;;;;;5036075;28;20003;-80
2022/09/07 06:18:45;;;;;;;2.42;1.60;;;17.30;99.90;;;;;;5052551;28;20049;-80
2022/09/07 06:21:13;;;;;;;2.00;1.73;;;15.40;99.90;;;;;;5052475;28;20048;-80
2022/09/07 06:23:41;;;;;;;2.13;1.85;;;15.60;99.90;;;;;;5035727;28;20052;-80
2022/09/07 06:26:08;;;;;;;2.00;1.80;;;15.00;99.90;;;;;;5052433;28;20048;-80
2022/09/07 06:28:39;;;;;;;2.25;1.95;;;15.10;99.90;;;;;;5052467;28;20044;-80
2022/09/07 06:31:07;;;;;;;1.60;1.25;;;15.60;99.90;;;;;;5052545;28;20045;-81
2022/09/07 06:33:33;;;;;;;1.50;1.20;;;16.60;99.90;;;;;;5052507;28;20052;-81
2022/09/07 06:36:01;;;;;;;1.33;1.20;;;16.10;99.90;;;;;;5055998;28;20052;-81
2022/09/07 06:38:36;;;;;;;1.73;1.55;;;15.60;99.90;;;;;;5056340;28;20114;-80
2022/09/07 06:41:07;;;;;;;1.92;1.60;;;17.60;99.90;;;;;;5056232;28;20053;-82
2022/09/07 06:43:33;;;;;;;2.58;1.83;;;16.70;99.90;;;;;;5056427;28;20625;-82
2022/09/07 06:46:00;;;;;;;2.38;2.10;;;15.30;99.90;;;;;;5039456;28;20353;-82
2022/09/07 06:48:26;;;;;;;;;;;15.50;99.90;;;;;;5056613;28;20048;-81
2022/09/07 06:51:00;;;;;;;2.25;2.05;;;16.90;99.90;;;;;;5056184;28;19921;-82
2022/09/07 06:53:29;;;;;;;1.70;1.48;;;16.50;99.90;;;;;;5056159;28;20049;-82
2022/09/07 06:55:55;;;;;;;3.13;2.28;;;16.20;99.90;;;;;;5022981;28;20842;-82
2022/09/07 06:58:23;;;;;;;2.80;2.50;;;15.30;99.90;;;;;;5039550;28;20056;-80
2022/09/07 07:00:49;;;;;;;3.20;2.58;;;15.50;99.90;;;;;;5039471;28;20101;-80
2022/09/07 07:03:15;;;;;;;3.50;3.20;;;16.20;99.90;;;;;;5055638;28;20399;-81
2022/09/07 07:05:42;;;;;;;2.83;2.45;;;15.50;99.90;;;;;;5055689;28;20036;-81
2022/09/07 07:08:07;;;;;;;2.03;1.80;;;17.60;99.90;;;;;;5055925;28;20048;-81
2022/09/07 07:10:37;;;;;;;1.55;1.45;;;17.70;99.90;;;;;;5073790;28;20054;-82
2022/09/07 07:13:03;;;;;;;2.15;1.95;;;15.70;99.90;;;;;;5038930;28;20074;-80
2022/09/07 07:15:29;;;;;;;2.05;1.85;;;17.40;99.90;;;;;;5055312;28;20044;-82
2022/09/07 07:17:56;;;;;;;2.72;2.45;;;15.40;99.90;;;;;;5055419;28;20042;-81
2022/09/07 07:20:21;;;;;;;3.08;1.60;;;17.10;99.90;;;;;;5073463;28;20040;-81
2022/09/07 07:22:51;;;;;;;1.35;1.25;;;15.60;99.90;;;;;;5038767;28;20140;-81
2022/09/07 07:25:17;;;;;;;2.00;1.80;;;16.90;99.90;;;;;;5055217;28;20055;-80
2022/09/07 07:27:46;;;;;;;2.63;2.42;;;15.40;99.90;;;;;;5055266;28;20488;-81
2022/09/07 07:30:13;;;;;;;2.90;2.30;;;15.30;99.90;;;;;;5055082;28;20050;-80
2022/09/07 07:32:40;;;;;;;1.70;1.60;;;17.90;99.90;;;;;;5054945;28;20118;-80
2022/09/07 07:35:18;;;;;;;2.13;1.92;;;17.50;99.90;;;;;;5038568;28;20056;-81
2022/09/07 07:37:44;;;;;;;1.83;1.63;;;16.20;99.90;;;;;;5055486;28;20060;-82
2022/09/07 07:40:12;;;;;;;2.50;2.10;;;17.60;99.90;;;;;;5055402;28;20053;-81
2022/09/07 07:42:40;;;;;;;2.85;2.55;;;15.30;99.90;;;;;;5038735;28;20048;-81
2022/09/07 07:45:07;;;;;;;3.00;2.33;;;17.30;99.90;;;;;;5038227;28;20552;-81
2022/09/07 07:47:34;;;;;;;2.20;2.00;;;16.70;99.90;;;;;;5073313;28;20545;-80
2022/09/07 07:50:03;;;;;;;3.03;2.45;;;15.40;99.90;;;;;;5055502;28;20445;-81
2022/09/07 07:52:33;;;;;;;2.55;2.17;;;17.90;99.90;;;;;;5055162;28;20045;-81
2022/09/07 07:54:59;;;;;;;2.03;1.80;;;15.40;99.90;;;;;;5038380;28;20036;-82
2022/09/07 07:57:25;;;;;;;1.92;1.52;;;17.20;99.90;;;;;;5054744;28;20131;-82
2022/09/07 07:59:51;;;;;;;2.03;1.83;;;15.60;99.90;;;;;;5038066;28;20051;-81
2022/09/07 08:02:16;;;;;;;3.25;2.30;;;18.10;99.90;;;;;;5054632;28;20055;-81
2022/09/07 08:04:42;;;;;;;5.28;3.15;;;16.10;99.90;;;;;;5054833;28;20106;-82
2022/09/07 08:07:10;;;;;;;3.70;3.22;;;16.90;99.90;;;;;;5054439;28;20123;-82
2022/09/07 08:09:38;;;;;;;3.47;2.78;;;16.30;99.90;;;;;;5037951;28;20052;-82
2022/09/07 08:12:04;;;;;;;3.03;2.72;;;16.50;99.90;;;;;;5072595;28;20048;-82
2022/09/07 08:14:30;;;;;;;3.97;3.22;;;16.10;99.90;;;;;;5037817;28;20040;-73
2022/09/07 08:16:55;;;;;;;4.53;3.20;;;18.30;99.90;;;;;;5037983;28;20494;-74
2022/09/07 08:19:21;;;;;;;3.65;3.10;;;17.30;99.90;;;;;;5054268;28;20403;-73
2022/09/07 08:21:46;;;;;;;3.70;3.38;;;18.30;99.90;;;;;;5054159;28;20094;-73
2022/09/07 08:24:12;;;;;;;2.53;2.33;;;16.20;99.90;;;;;;5054042;28;20040;-73
2022/09/07 08:26:38;;;;;;;2.40;2.20;;;16.10;99.90;;;;;;5054313;28;20036;-73
2022/09/07 08:29:03;;;;;;;4.07;3.67;;;18.40;99.90;;;;;;5037629;28;20119;-73
2022/09/07 08:31:29;;;;;;;;;;;18.60;99.90;;;;;;5054923;28;20040;-73
2022/09/07 08:33:55;;;;;;;3.50;3.20;;;17.50;99.90;;;;;;5054096;28;19939;-73
2022/09/07 08:36:21;;;;;;;3.40;3.10;;;17.50;99.90;;;;;;5054302;28;20055;-73
2022/09/07 08:38:47;;;;;;;;;;;16.80;99.90;;;;;;5037747;28;20219;-73
2022/09/07 08:41:30;;;;;;;2.50;2.25;;;19.00;99.90;;;;;;5054087;28;20011;-73
2022/09/07 08:44:05;;;;;;;3.08;2.65;;;17.20;99.90;;;;;;5053780;28;20052;-74
2022/09/07 08:46:37;;;;;;;3.28;2.70;;;16.80;99.90;;;;;;5036908;28;20040;-73
2022/09/07 08:49:05;;;;;;;3.22;2.80;;;18.10;99.90;;;;;;5053490;28;20040;-73
2022/09/07 08:51:55;;;;;;;2.88;2.38;;;17.60;99.90;;;;;;5053922;28;20044;-73
2022/09/07 08:54:20;;;;;;;2.30;2.10;;;18.90;99.90;;;;;;5037210;28;20048;-74
2022/09/07 08:56:49;;;;;;;;;;;17.10;99.90;;;;;;5053238;28;20044;-73
2022/09/07 08:59:23;;;;;;;2.50;2.30;;;17.50;99.90;;;;;;5053612;28;19924;-73
2022/09/07 09:01:49;;;;;;;3.00;2.60;;;18.70;99.90;;;;;;5036702;28;20053;-73
2022/09/07 09:04:25;;;;;;;3.58;2.65;;;18.30;99.90;;;;;;5053316;28;20051;-73
2022/09/07 09:06:57;;;;;;;2.93;2.57;;;16.50;99.90;;;;;;5036775;28;20468;-73
2022/09/07 09:09:23;;;;;;;2.45;1.88;;;18.20;99.90;;;;;;5053240;28;20044;-73
2022/09/07 09:12:08;;;;;;;3.58;3.28;;;17.30;99.90;;;;;;5053545;28;20076;-74
2022/09/07 09:14:51;;;;;;;4.60;4.20;;;19.00;99.90;;;;;;5036613;28;20046;-82
2022/09/07 09:17:21;;;;;;;3.15;2.85;;;17.60;99.90;;;;;;5053107;28;20056;-82
2022/09/07 09:19:59;;;;;;;2.80;2.53;;;17.20;99.90;;;;;;5053564;28;20506;-82
2022/09/07 09:22:27;;;;;;;2.30;2.10;;;19.20;99.90;;;;;;5053089;28;20044;-73
2022/09/07 09:25:11;;;;;;;2.05;1.90;;;19.90;99.90;;;;;;5036446;28;20048;-74
2022/09/07 09:27:37;;;;;;;2.30;2.10;;;20.10;99.90;;;;;;5053045;28;20484;-74
2022/09/07 09:30:10;;;;;;;;;;;19.90;99.90;;;;;;5037297;28;20056;-72
2022/09/07 09:32:40;;;;;;;3.42;3.13;;;19.90;99.90;;;;;;5053220;28;19916;-72
2022/09/07 09:35:21;;;;;;;3.85;3.50;;;18.40;99.90;;;;;;5053066;28;20395;-73
2022/09/07 09:37:46;;;;;;;4.35;3.95;;;19.30;99.90;;;;;;5052643;28;20460;-73
2022/09/07 09:40:17;;;;;;;;;;;18.40;99.90;;;;;;5053213;28;20044;-73
2022/09/07 09:42:43;;;;;;;3.88;3.58;;;18.30;99.90;;;;;;5036582;28;19923;-82
2022/09/07 09:45:22;;;;;;;3.42;3.13;;;19.70;99.90;;;;;;5052633;28;20044;-73
2022/09/07 09:47:50;;;;;;;3.55;3.22;;;19.70;99.90;;;;;;5036326;28;20071;-73
2022/09/07 09:50:46;;;;;;;3.58;3.28;;;18.40;99.90;;;;;;5052802;28;20048;-73
2022/09/07 09:53:39;;;;;;;2.58;2.38;;;18.60;99.90;;;;;;5020423;28;20064;-73
2022/09/07 09:56:06;;;;;;;3.13;2.78;;;18.70;99.90;;;;;;5070691;28;20045;-73
2022/09/07 09:58:36;;;;;;;5.30;4.80;;;19.10;99.90;;;;;;5036167;28;20048;-73
2022/09/07 10:01:19;;;;;;;4.47;4.05;;;19.70;99.90;;;;;;5052684;28;20125;-73
2022/09/07 10:03:45;;;;;;;3.88;3.47;;;20.00;99.90;;;;;;5052784;28;20040;-73
2022/09/07 10:06:17;;;;;;;3.88;3.20;;;20.10;99.90;;;;;;5052601;28;20136;-83
2022/09/07 10:08:58;;;;;;;7.18;5.50;;;19.50;99.90;;;;;;5054363;28;20407;-73
2022/09/07 10:11:49;;;;;;;4.25;3.85;;;20.10;99.90;;;;;;5056473;28;20049;-73
2022/09/07 10:14:27;;;;;;;2.75;2.55;;;19.60;99.90;;;;;;5056474;28;20045;-72
2022/09/07 10:16:53;;;;;;;4.85;4.35;;;19.40;99.90;;;;;;5056888;28;20060;-73
2022/09/07 10:19:31;;;;;;;;;;;19.50;99.90;;;;;;5057118;28;20395;-80
2022/09/07 10:22:00;;;;;;;3.92;3.53;;;19.90;99.90;;;;;;5056421;28;19920;-82
2022/09/07 10:24:30;;;;;;;3.42;2.80;;;19.90;99.90;;;;;;5056170;28;20052;-73
2022/09/07 10:26:56;;;;;;;2.72;2.53;;;20.50;99.90;;;;;;5056191;28;20101;-73
2022/09/07 10:29:29;;;;;;;3.13;2.65;;;21.00;99.90;;;;;;5056423;28;20399;-73
2022/09/07 10:31:58;;;;;;;2.10;1.90;;;21.00;99.90;;;;;;5056611;28;20040;-82
2022/09/07 10:34:53;;;;;;;1.95;1.85;;;21.80;99.90;;;;;;5056290;28;20048;-73
2022/09/07 10:37:50;;;;;;;3.33;2.45;;;21.90;99.90;;;;;;5056361;28;20103;-73
2022/09/07 10:40:36;;;;;;;2.75;2.40;;;22.40;99.90;;;;;;5039836;28;20121;-82
2022/09/07 10:43:26;;;;;;;2.13;1.88;;;22.60;99.90;;;;;;5074080;28;20103;-73
2022/09/07 10:45:54;;;;;;;2.30;2.00;;;22.60;99.90;;;;;;5056278;28;20403;-73
2022/09/07 10:48:47;;;;;;;1.70;1.60;;;22.60;99.90;;;;;;5055972;28;20044;-73
2022/09/07 10:51:33;;;;;;;1.83;1.73;;;22.60;99.90;;;;;;5074177;28;20076;-81
2022/09/07 10:54:17;;;;;;;1.60;1.50;;;22.40;99.90;;;;;;5056050;28;20124;-72
2022/09/07 10:56:54;;;;;;;2.20;1.95;;;22.40;99.90;;;;;;5056098;28;20067;-80
2022/09/07 10:59:20;;;;;;;2.72;2.25;;;22.40;99.90;;;;;;5039227;28;20072;-81
2022/09/07 11:02:00;;;;;;;1.70;1.60;;;22.30;99.90;;;;;;5039102;28;20072;-72
2022/09/07 11:04:36;;;;;;;1.27;1.17;;;22.60;99.90;;;;;;5055407;28;20052;-72
2022/09/07 11:07:26;;;;;;;1.73;1.15;;;23.10;99.90;;;;;;5055548;28;20086;-72
2022/09/07 11:10:25;;;;;;;1.58;1.20;;;23.40;99.90;;;;;;5055547;28;20043;-73
2022/09/07 11:12:55;;;;;;;1.50;1.40;;;23.30;99.90;;;;;;5055400;28;20047;-81
2022/09/07 11:15:23;;;;;;;1.15;1.05;;;23.00;99.90;;;;;;5039027;28;20055;-81
2022/09/07 11:18:04;;;;;;;1.50;1.40;;;22.80;99.90;;;;;;5038950;28;20052;-80
2022/09/07 11:20:59;;;;;;;0.93;0.90;;;22.70;99.90;;;;;;5054306;28;20052;-80
2022/09/07 11:24:08;;;;;;;1.30;1.00;;;22.70;99.90;;;;;;5053083;28;20389;-81
2022/09/07 11:26:53;;;;;;;1.10;1.00;;;22.80;99.90;;;;;;5055114;28;20040;-81
2022/09/07 11:29:49;;;;;;;1.25;1.15;;;22.50;99.90;;;;;;5055237;28;20094;-79
2022/09/07 11:32:25;;;;;;;1.38;1.10;;;22.30;99.90;;;;;;5055077;28;20534;-72
2022/09/07 11:35:11;;;;;;;1.88;1.52;;;22.30;99.90;;;;;;5055268;28;20384;-73
2022/09/07 11:37:47;;;;;;;1.20;1.10;;;22.20;99.90;;;;;;5054061;28;20056;-72
2022/09/07 11:40:34;;;;;;;1.20;1.10;;;22.30;99.90;;;;;;5038703;28;20052;-72
2022/09/07 11:43:18;;;;;;;0.85;0.80;;;22.30;99.90;;;;;;5054948;28;20055;-72
2022/09/07 11:45:51;;;;;;;0.88;0.88;;;22.20;99.90;;;;;;5055022;28;20488;-72
2022/09/07 11:48:31;;;;;;;1.25;1.00;;;22.20;99.90;;;;;;5054747;28;20044;-72
2022/09/07 11:51:37;;;;;;;1.38;1.20;;;22.40;99.90;;;;;;5038086;28;20048;-72
2022/09/07 11:54:34;;;;;;;1.08;0.98;;;22.40;99.90;;;;;;5054976;28;20456;-72
2022/09/07 11:57:43;;;;;;;1.10;0.80;;;22.60;99.90;;;;;;5054817;28;20052;-72
2022/09/07 12:00:30;;;;;;;1.13;0.80;;;22.90;99.90;;;;;;5054679;28;20055;-80
2022/09/07 12:03:38;;;;;;;1.83;0.90;;;22.80;99.90;;;;;;5054526;28;20145;-80
2022/09/07 12:06:10;;;;;;;;;;;22.70;99.90;;;;;;5008993;28;20060;-80
2022/09/07 12:08:53;;;;;;;1.15;1.00;;;23.40;99.90;;;;;;5054811;28;19996;-80
2022/09/07 12:11:30;;;;;;;1.45;0.90;;;23.80;99.90;;;;;;5054859;28;20048;-81
2022/09/07 12:14:04;;;;;;;0.80;0.70;;;23.80;99.90;;;;;;5037891;28;20036;-80
2022/09/07 12:16:36;;;;;;;1.35;0.80;;;23.60;99.90;;;;;;5054860;28;20036;-81
2022/09/07 12:19:23;;;;;;;0.95;0.70;;;23.30;99.90;;;;;;5054258;28;20494;-80
2022/09/07 12:21:52;;;;;;;0.82;0.63;;;23.30;99.90;;;;;;5053943;28;20083;-80
2022/09/07 12:24:38;;;;;;;1.30;0.80;;;23.60;99.90;;;;;;5054227;28;20071;-73
2022/09/07 12:27:27;;;;;;;1.10;0.60;;;24.00;99.90;;;;;;5072330;28;20097;-73
2022/09/07 12:29:56;;;;;;;1.10;0.80;;;24.00;99.90;;;;;;5053509;28;20131;-74
2022/09/07 12:32:47;;;;;;;0.68;0.50;;;23.50;99.90;;;;;;5054224;28;20376;-81
2022/09/07 12:35:40;;;;;;;0.68;0.60;;;23.30;99.90;;;;;;5054007;28;20087;-81
2022/09/07 12:38:12;;;;;;;0.70;0.70;;;23.00;99.90;;;;;;5050358;28;20092;-73
2022/09/07 12:40:38;;;;;;;1.63;1.10;;;23.00;99.90;;;;;;5034131;28;20392;-72
2022/09/07 12:43:12;;;;;;;1.73;0.90;;;23.30;99.90;;;;;;5051810;28;20044;-72
2022/09/07 12:45:38;;;;;;;0.88;0.70;;;23.80;99.90;;;;;;5050063;28;20048;-73
2022/09/07 12:48:16;;;;;;;0.50;0.50;;;24.40;99.90;;;;;;5050287;28;20045;-73
2022/09/07 12:50:53;;;;;;;1.55;0.68;;;25.20;99.90;;;;;;5050259;28;20064;-80
2022/09/07 12:53:28;;;;;;;0.88;0.50;;;25.40;99.60;;;;;;5050342;28;20052;-81
2022/09/07 12:56:21;;;;;;;0.82;0.60;;;25.60;99.20;;;;;;5050743;28;20036;-81
2022/09/07 12:58:59;;;;;;;0.50;0.50;;;25.70;99.90;;;;;;5050172;28;20037;-80
2022/09/07 13:01:42;;;;;;;0.77;0.50;;;25.50;97.90;;;;;;5050116;28;20033;-79
2022/09/07 13:04:17;;;;;;;0.77;0.50;;;25.80;99.90;;;;;;5050227;28;20071;-80
2022/09/07 13:07:11;;;;;;;0.40;0.38;;;25.40;99.40;;;;;;5050005;28;20045;-79
2022/09/07 13:09:40;;;;;;;1.00;0.60;;;25.30;99.90;;;;;;5050086;28;20036;-79
2022/09/07 13:12:32;;;;;;;1.85;0.77;;;25.00;98.80;;;;;;5050383;28;20095;-80
2022/09/07 13:14:59;;;;;;;1.23;0.57;;;24.90;98.30;;;;;;5049773;28;20044;-80
2022/09/07 13:17:28;;;;;;;0.75;0.52;;;24.90;99.00;;;;;;5033546;28;20489;-79
2022/09/07 13:19:54;;;;;;;0.77;0.60;;;24.70;99.90;;;;;;5050070;28;20106;-79
2022/09/07 13:22:47;;;;;;;0.82;0.50;;;24.20;98.60;;;;;;5049771;28;20447;-80